createdAt,value
2018-04-11T00:01:41.396Z,73.90
2018-04-11T00:04:07.384Z,74.80
2018-04-11T00:06:33.341Z,74.80
2018-04-11T00:08:59.372Z,76.80
2018-04-11T00:11:25.341Z,76.40
2018-04-11T00:13:51.300Z,76.40
2018-04-11T00:16:18.044Z,77.50
2018-04-11T00:18:44.041Z,77.30
2018-04-11T00:21:10.005Z,77.60
2018-04-11T00:23:36.036Z,78.20
2018-04-11T00:26:02.030Z,79.10
2018-04-11T00:28:28.040Z,79.70
2018-04-11T00:30:54.739Z,79.30
2018-04-11T00:33:20.728Z,79.20
2018-04-11T00:35:47.427Z,82.60
2018-04-11T00:38:13.431Z,82.60
2018-04-11T00:40:39.408Z,83.10
2018-04-11T00:43:05.371Z,81.70
2018-04-11T00:45:31.374Z,83.10
2018-04-11T00:47:57.349Z,83.80
2018-04-11T00:50:23.338Z,84.40
2018-04-11T00:55:46.057Z,86.50
2018-04-11T00:58:12.013Z,90.70
2018-04-11T01:00:38.004Z,90.00
2018-04-11T01:03:03.965Z,90.80
2018-04-11T01:05:29.976Z,90.90
2018-04-11T01:07:55.927Z,90.70
2018-04-11T01:10:21.916Z,91.30
2018-04-11T01:12:48.633Z,91.90
2018-04-11T01:15:14.687Z,91.90
2018-04-11T01:17:40.643Z,92.10
2018-04-11T01:20:07.333Z,92.00
2018-04-11T01:22:33.334Z,92.00
2018-04-11T01:25:00.094Z,94.00
2018-04-11T01:27:26.115Z,94.00
2018-04-11T01:29:52.803Z,94.20
2018-04-11T01:32:18.782Z,94.20
2018-04-11T01:34:44.776Z,95.30
2018-04-11T01:37:10.723Z,95.70
2018-04-11T01:39:36.711Z,96.00
2018-04-11T01:42:03.402Z,97.10
2018-04-11T01:44:29.405Z,97.00
2018-04-11T01:46:56.135Z,97.80
2018-04-11T01:49:22.111Z,97.80
2018-04-11T01:51:48.087Z,99.00
2018-04-11T01:54:14.070Z,99.80
2018-04-11T01:56:40.809Z,99.60
2018-04-11T01:59:07.504Z,99.90
2018-04-11T02:01:33.486Z,99.90
2018-04-11T02:03:59.498Z,99.90
2018-04-11T02:06:25.448Z,99.90
2018-04-11T02:08:51.448Z,99.90
2018-04-11T02:11:17.413Z,99.90
2018-04-11T02:13:43.379Z,99.90
2018-04-11T02:16:10.107Z,99.90
2018-04-11T02:18:36.096Z,99.90
2018-04-11T02:21:02.039Z,99.90
2018-04-11T02:23:28.043Z,99.90
2018-04-11T02:25:54.784Z,99.90
2018-04-11T02:28:21.506Z,99.90
2018-04-11T02:30:47.459Z,99.90
2018-04-11T02:33:13.461Z,99.90
2018-04-11T02:35:39.440Z,99.90
2018-04-11T02:38:05.409Z,99.90
2018-04-11T02:40:31.404Z,99.90
2018-04-11T02:42:57.367Z,99.90
2018-04-11T02:45:24.076Z,99.90
2018-04-11T02:47:50.056Z,99.90
2018-04-11T02:50:16.778Z,99.90
2018-04-11T02:52:42.772Z,99.90
2018-04-11T02:55:08.768Z,99.90
2018-04-11T02:57:34.725Z,99.90
2018-04-11T03:00:01.461Z,99.90
2018-04-11T03:02:28.222Z,99.90
2018-04-11T03:04:54.924Z,99.90
2018-04-11T03:07:20.918Z,99.90
2018-04-11T03:09:47.623Z,99.90
2018-04-11T03:12:13.620Z,99.90
2018-04-11T03:14:39.605Z,99.90
2018-04-11T03:17:05.592Z,99.90
2018-04-11T03:19:31.579Z,99.90
2018-04-11T03:21:57.573Z,99.90
2018-04-11T03:24:24.435Z,99.90
2018-04-11T03:26:50.399Z,99.90
2018-04-11T03:29:16.382Z,99.90
2018-04-11T03:31:43.131Z,99.90
2018-04-11T03:34:09.868Z,99.90
2018-04-11T03:36:35.853Z,99.90
2018-04-11T03:39:01.841Z,99.90
2018-04-11T03:41:27.846Z,99.90
2018-04-11T03:43:53.791Z,99.90
2018-04-11T03:46:19.792Z,99.90
2018-04-11T03:48:45.752Z,99.90
2018-04-11T03:51:11.712Z,99.90
2018-04-11T03:53:37.704Z,99.90
2018-04-11T03:56:03.647Z,99.90
2018-04-11T03:58:29.644Z,99.90
2018-04-11T04:00:56.344Z,99.90
2018-04-11T04:03:22.323Z,99.90
2018-04-11T04:05:48.262Z,99.90
2018-04-11T04:08:14.267Z,99.90
2018-04-11T04:10:40.266Z,99.90
2018-04-11T04:13:06.245Z,99.90
2018-04-11T04:15:44.579Z,99.90
2018-04-11T04:18:23.006Z,99.90
2018-04-11T04:20:48.996Z,99.90
2018-04-11T04:23:15.001Z,99.90
2018-04-11T04:25:41.740Z,99.90
2018-04-11T04:28:07.705Z,99.90
2018-04-11T04:30:33.705Z,99.90
2018-04-11T04:32:59.724Z,99.90
2018-04-11T04:35:25.716Z,99.90
2018-04-11T04:37:51.717Z,99.90
2018-04-11T04:40:17.679Z,99.90
2018-04-11T04:42:44.402Z,99.90
2018-04-11T04:45:10.393Z,99.90
2018-04-11T04:47:36.349Z,99.90
2018-04-11T04:50:02.351Z,99.90
2018-04-11T04:52:28.334Z,99.90
2018-04-11T04:54:54.296Z,99.90
2018-04-11T04:57:20.319Z,99.90
2018-04-11T04:59:46.282Z,99.90
2018-04-11T05:02:13.011Z,99.90
2018-04-11T05:04:38.973Z,99.90
2018-04-11T05:07:05.716Z,99.90
2018-04-11T05:09:32.437Z,99.90
2018-04-11T05:11:58.447Z,99.90
2018-04-11T05:14:24.416Z,99.90
2018-04-11T05:16:50.372Z,99.90
2018-04-11T05:19:16.356Z,99.90
2018-04-11T05:21:42.367Z,99.90
2018-04-11T05:24:09.043Z,99.90
2018-04-11T05:26:35.026Z,99.90
2018-04-11T05:29:01.034Z,99.90
2018-04-11T05:31:27.648Z,99.90
2018-04-11T05:33:53.640Z,99.90
2018-04-11T05:36:19.622Z,99.90
2018-04-11T05:38:45.563Z,99.90
2018-04-11T05:41:11.567Z,99.90
2018-04-11T05:43:38.315Z,99.90
2018-04-11T05:46:04.321Z,99.90
2018-04-11T05:48:30.299Z,99.90
2018-04-11T05:50:57.276Z,99.90
2018-04-11T05:53:23.303Z,99.90
2018-04-11T05:55:49.283Z,99.90
2018-04-11T05:58:15.276Z,99.90
2018-04-11T06:00:41.977Z,99.90
2018-04-11T06:03:07.964Z,99.90
2018-04-11T06:05:34.664Z,99.90
2018-04-11T06:08:00.644Z,99.90
2018-04-11T06:10:27.381Z,99.90
2018-04-11T06:12:53.360Z,99.90
2018-04-11T06:15:19.372Z,99.90
2018-04-11T06:17:46.107Z,99.90
2018-04-11T06:20:12.119Z,99.90
2018-04-11T06:22:38.071Z,99.90
2018-04-11T06:25:04.048Z,99.90
2018-04-11T06:27:30.077Z,99.90
2018-04-11T06:29:56.034Z,99.90
2018-04-11T06:32:22.041Z,99.90
2018-04-11T06:34:48.740Z,99.90
2018-04-11T06:37:14.767Z,99.90
2018-04-11T06:39:40.776Z,99.90
2018-04-11T06:42:07.517Z,99.90
2018-04-11T06:44:34.223Z,99.90
2018-04-11T06:47:00.207Z,99.90
2018-04-11T06:49:26.940Z,99.90
2018-04-11T06:51:52.891Z,99.90
2018-04-11T06:54:19.639Z,99.90
2018-04-11T06:56:45.633Z,99.90
2018-04-11T06:59:11.612Z,99.90
2018-04-11T07:01:37.607Z,99.90
2018-04-11T07:04:03.609Z,99.90
2018-04-11T07:06:30.367Z,99.90
2018-04-11T07:08:56.371Z,99.90
2018-04-11T07:11:22.321Z,99.90
2018-04-11T07:13:48.324Z,99.90
2018-04-11T07:16:14.320Z,99.90
2018-04-11T07:18:40.306Z,99.90
2018-04-11T07:21:06.294Z,99.90
2018-04-11T07:23:32.311Z,99.90
2018-04-11T07:25:59.121Z,99.90
2018-04-11T07:28:25.078Z,99.90
2018-04-11T07:30:51.065Z,99.90
2018-04-11T07:33:17.028Z,99.90
2018-04-11T07:35:43.022Z,99.90
2018-04-11T07:38:09.061Z,99.90
2018-04-11T07:40:35.020Z,99.90
2018-04-11T07:43:01.027Z,99.90
2018-04-11T07:45:27.782Z,99.90
2018-04-11T07:47:54.484Z,99.90
2018-04-11T07:50:20.507Z,99.90
2018-04-11T07:52:46.464Z,99.90
2018-04-11T07:55:12.683Z,99.90
2018-04-11T07:57:38.659Z,99.90
2018-04-11T08:00:04.633Z,99.90
2018-04-11T08:02:31.369Z,99.90
2018-04-11T08:04:58.158Z,99.90
2018-04-11T08:07:24.182Z,99.90
2018-04-11T08:09:50.145Z,99.90
2018-04-11T08:12:16.139Z,99.90
2018-04-11T08:14:42.882Z,99.20
2018-04-11T08:17:08.860Z,99.20
2018-04-11T08:19:34.823Z,98.70
2018-04-11T08:22:00.820Z,99.10
2018-04-11T08:24:26.804Z,99.60
2018-04-11T08:26:52.777Z,99.30
2018-04-11T08:29:19.517Z,98.70
2018-04-11T08:31:46.213Z,98.30
2018-04-11T08:34:12.225Z,98.40
2018-04-11T08:36:38.205Z,97.90
2018-04-11T08:39:04.944Z,97.60
2018-04-11T08:41:30.994Z,96.00
2018-04-11T08:43:56.963Z,95.90
2018-04-11T08:46:23.696Z,95.40
2018-04-11T08:48:49.693Z,95.40
2018-04-11T08:51:15.655Z,94.40
2018-04-11T08:53:42.355Z,94.80
2018-04-11T08:56:09.077Z,95.40
2018-04-11T08:58:35.088Z,95.30
2018-04-11T09:01:01.067Z,93.70
2018-04-11T09:03:27.036Z,93.50
2018-04-11T09:05:53.103Z,92.50
2018-04-11T09:08:19.060Z,91.40
2018-04-11T09:10:45.079Z,91.10
2018-04-11T09:13:11.035Z,90.40
2018-04-11T09:15:37.013Z,86.80
2018-04-11T09:18:02.981Z,85.00
2018-04-11T09:20:29.057Z,85.50
2018-04-11T09:22:55.767Z,81.90
2018-04-11T09:25:21.732Z,81.70
2018-04-11T09:27:47.733Z,82.30
2018-04-11T09:30:13.694Z,79.90
2018-04-11T09:32:39.683Z,79.40
2018-04-11T09:35:05.648Z,76.50
2018-04-11T09:37:31.662Z,75.40
2018-04-11T09:39:57.715Z,74.70
2018-04-11T09:42:23.691Z,73.10
2018-04-11T09:44:49.696Z,73.90
2018-04-11T09:47:15.827Z,74.10
2018-04-11T09:49:41.788Z,74.10
2018-04-11T09:52:07.796Z,70.60
2018-04-11T09:54:33.797Z,71.70
2018-04-11T09:57:00.583Z,69.20
2018-04-11T09:59:26.599Z,69.20
2018-04-11T10:01:53.304Z,68.90
2018-04-11T10:04:19.311Z,68.90
2018-04-11T10:06:45.371Z,68.00
2018-04-11T10:09:11.390Z,69.60
2018-04-11T10:11:37.340Z,71.10
2018-04-11T10:14:03.347Z,72.60
2018-04-11T10:16:29.376Z,70.40
2018-04-11T10:18:55.395Z,70.20
2018-04-11T10:21:22.105Z,65.10
2018-04-11T10:23:48.061Z,65.10
2018-04-11T10:26:14.055Z,65.50
2018-04-11T10:28:40.305Z,65.50
2018-04-11T10:31:06.277Z,66.10
2018-04-11T10:33:32.321Z,63.50
2018-04-11T10:35:59.190Z,61.00
2018-04-11T10:38:25.887Z,61.30
2018-04-11T10:40:51.869Z,61.40
2018-04-11T10:43:17.863Z,61.10
2018-04-11T10:45:43.854Z,60.90
2018-04-11T10:48:09.864Z,60.20
2018-04-11T10:50:35.849Z,59.70
2018-04-11T10:53:01.851Z,59.50
2018-04-11T10:55:27.855Z,59.20
2018-04-11T10:57:53.863Z,59.70
2018-04-11T11:00:19.857Z,60.00
2018-04-11T11:02:45.852Z,58.90
2018-04-11T11:05:11.807Z,57.30
2018-04-11T11:07:37.846Z,57.10
2018-04-11T11:10:03.836Z,57.60
2018-04-11T11:12:30.604Z,57.70
2018-04-11T11:14:56.567Z,57.70
2018-04-11T11:17:22.555Z,55.60
2018-04-11T11:20:00.509Z,56.40
2018-04-11T11:22:26.545Z,56.40
2018-04-11T11:24:53.480Z,56.40
2018-04-11T11:27:19.458Z,54.90
2018-04-11T11:29:45.447Z,56.90
2018-04-11T11:32:11.439Z,56.70
2018-04-11T11:34:37.407Z,56.10
2018-04-11T11:37:04.148Z,53.60
2018-04-11T11:39:30.143Z,53.50
2018-04-11T11:41:56.127Z,52.30
2018-04-11T11:44:22.632Z,54.10
2018-04-11T11:46:48.595Z,53.30
2018-04-11T11:49:14.597Z,55.10
2018-04-11T11:51:40.667Z,52.90
2018-04-11T11:54:06.627Z,52.30
2018-04-11T11:56:33.323Z,52.40
2018-04-11T11:58:59.340Z,52.40
2018-04-11T12:01:25.338Z,54.00
2018-04-11T12:03:51.285Z,51.80
2018-04-11T12:06:17.303Z,51.70
2018-04-11T12:08:43.304Z,51.60
2018-04-11T12:11:09.374Z,52.00
2018-04-11T12:13:35.351Z,51.20
2018-04-11T12:16:01.429Z,50.80
2018-04-11T12:18:27.424Z,49.70
2018-04-11T12:20:54.156Z,51.20
2018-04-11T12:23:20.146Z,51.20
2018-04-11T12:25:46.143Z,52.60
2018-04-11T12:28:12.884Z,50.60
2018-04-11T12:30:39.674Z,49.50
2018-04-11T12:33:05.679Z,49.20
2018-04-11T12:35:32.423Z,46.80
2018-04-11T12:37:58.404Z,46.70
2018-04-11T12:40:24.410Z,46.90
2018-04-11T12:42:51.117Z,43.50
2018-04-11T12:45:17.112Z,43.40
2018-04-11T12:47:43.073Z,43.30
2018-04-11T12:50:09.103Z,44.30
2018-04-11T12:52:35.059Z,44.80
2018-04-11T12:55:01.033Z,44.40
2018-04-11T12:57:27.051Z,44.60
2018-04-11T12:59:53.007Z,44.40
2018-04-11T13:02:19.008Z,44.90
2018-04-11T13:04:44.985Z,45.30
2018-04-11T13:07:11.786Z,45.90
2018-04-11T13:09:37.769Z,45.20
2018-04-11T13:12:03.729Z,45.60
2018-04-11T13:14:29.769Z,46.40
2018-04-11T13:16:55.744Z,47.70
2018-04-11T13:19:21.715Z,47.50
2018-04-11T13:21:47.739Z,47.60
2018-04-11T13:24:13.816Z,48.80
2018-04-11T13:26:39.834Z,47.90
2018-04-11T13:29:06.552Z,46.10
2018-04-11T13:31:32.561Z,46.10
2018-04-11T13:33:58.584Z,43.60
2018-04-11T13:36:25.328Z,38.80
2018-04-11T13:38:51.323Z,38.70
2018-04-11T13:41:17.364Z,38.40
2018-04-11T13:43:43.344Z,36.10
2018-04-11T13:46:10.146Z,36.30
2018-04-11T13:48:36.128Z,36.30
2018-04-11T13:51:02.105Z,38.20
2018-04-11T13:53:28.107Z,38.10
2018-04-11T13:55:54.064Z,35.60
2018-04-11T13:58:20.043Z,35.00
2018-04-11T14:00:45.999Z,35.10
2018-04-11T14:03:13.090Z,35.50
2018-04-11T14:05:39.632Z,35.50
2018-04-11T14:08:05.587Z,36.00
2018-04-11T14:10:31.612Z,35.10
2018-04-11T14:12:58.072Z,33.60
2018-04-11T14:15:24.538Z,35.00
2018-04-11T14:17:50.574Z,34.90
2018-04-11T14:20:16.588Z,36.00
2018-04-11T14:22:42.586Z,36.30
2018-04-11T14:25:09.841Z,38.50
2018-04-11T14:27:36.369Z,38.50
2018-04-11T14:30:02.385Z,38.20
2018-04-11T14:32:28.830Z,37.10
2018-04-11T14:34:54.811Z,37.70
2018-04-11T14:37:21.165Z,38.10
2018-04-11T14:39:47.920Z,38.10
2018-04-11T14:42:15.146Z,38.60
2018-04-11T14:44:41.479Z,38.60
2018-04-11T14:47:07.497Z,38.10
2018-04-11T14:49:33.503Z,39.50
2018-04-11T14:52:00.205Z,38.00
2018-04-11T14:54:26.247Z,38.00
2018-04-11T14:56:52.235Z,38.20
2018-04-11T14:59:18.948Z,39.00
2018-04-11T15:01:44.934Z,39.00
2018-04-11T15:04:11.675Z,38.80
2018-04-11T15:06:37.936Z,38.80
2018-04-11T15:09:03.953Z,40.60
2018-04-11T15:11:30.660Z,40.50
2018-04-11T15:13:56.655Z,40.40
2018-04-11T15:16:23.339Z,41.60
2018-04-11T15:18:49.354Z,41.60
2018-04-11T15:21:15.345Z,42.20
2018-04-11T15:23:41.424Z,42.00
2018-04-11T15:26:07.760Z,42.20
2018-04-11T15:28:34.480Z,43.00
2018-04-11T15:31:00.536Z,43.00
2018-04-11T15:33:26.486Z,44.00
2018-04-11T15:35:53.222Z,44.20
2018-04-11T15:38:19.204Z,44.10
2018-04-11T15:40:45.239Z,45.40
2018-04-11T15:43:11.256Z,45.00
2018-04-11T15:45:38.085Z,45.10
2018-04-11T15:48:04.065Z,45.10
2018-04-11T15:50:30.041Z,45.60
2018-04-11T15:52:57.077Z,44.90
2018-04-11T15:55:23.051Z,45.30
2018-04-11T15:57:49.049Z,46.20
2018-04-11T16:00:15.040Z,46.00
2018-04-11T16:02:41.804Z,45.80
2018-04-11T16:05:07.868Z,45.80
2018-04-11T16:07:33.836Z,46.10
2018-04-11T16:09:59.811Z,46.40
2018-04-11T16:12:26.599Z,47.10
2018-04-11T16:14:52.547Z,47.10
2018-04-11T16:17:18.528Z,46.80
2018-04-11T16:19:44.525Z,46.90
2018-04-11T16:22:10.582Z,46.80
2018-04-11T16:24:36.569Z,46.90
2018-04-11T16:27:02.561Z,46.80
2018-04-11T16:29:28.551Z,46.90
2018-04-11T16:31:54.570Z,47.70
2018-04-11T16:34:21.260Z,48.30
2018-04-11T16:36:47.225Z,48.20
2018-04-11T16:39:13.246Z,48.30
2018-04-11T16:41:39.274Z,48.90
2018-04-11T16:44:05.323Z,48.90
2018-04-11T16:46:31.285Z,48.70
2018-04-11T16:48:57.323Z,48.90
2018-04-11T16:51:23.257Z,49.00
2018-04-11T16:53:49.215Z,49.30
2018-04-11T16:56:15.205Z,49.60
2018-04-11T16:58:41.230Z,49.80
2018-04-11T17:01:07.188Z,49.70
2018-04-11T17:03:40.443Z,49.60
2018-04-11T17:06:06.528Z,49.90
2018-04-11T17:08:32.480Z,49.80
2018-04-11T17:10:58.472Z,50.10
2018-04-11T17:13:24.460Z,52.00
2018-04-11T17:15:51.155Z,51.80
2018-04-11T17:18:17.171Z,51.90
2018-04-11T17:20:56.332Z,52.80
2018-04-11T17:23:34.773Z,52.80
2018-04-11T17:26:13.251Z,52.30
2018-04-11T17:28:51.720Z,53.80
2018-04-11T17:31:33.772Z,54.30
2018-04-11T17:33:59.771Z,53.50
2018-04-11T17:36:25.724Z,54.60
2018-04-11T17:38:52.452Z,54.00
2018-04-11T17:41:18.410Z,54.00
2018-04-11T17:43:44.403Z,54.10
2018-04-11T17:46:11.185Z,54.70
2018-04-11T17:48:37.132Z,54.60
2018-04-11T17:51:03.137Z,54.70
2018-04-11T17:53:29.142Z,55.60
2018-04-11T17:55:55.091Z,55.40
2018-04-11T17:58:21.832Z,56.00
2018-04-11T18:00:47.807Z,55.90
2018-04-11T18:03:14.531Z,56.40
2018-04-11T18:05:41.256Z,56.50
2018-04-11T18:08:07.293Z,56.50
2018-04-11T18:10:33.337Z,56.20
2018-04-11T18:12:59.294Z,56.80
2018-04-11T18:15:25.279Z,56.70
2018-04-11T18:17:51.255Z,56.70
2018-04-11T18:20:18.756Z,57.00
2018-04-11T18:22:45.457Z,57.00
2018-04-11T18:25:11.475Z,56.90
2018-04-11T18:27:37.496Z,56.90
2018-04-11T18:30:03.498Z,57.40
2018-04-11T18:32:29.477Z,57.70
2018-04-11T18:34:55.437Z,57.10
2018-04-11T18:37:21.428Z,57.90
2018-04-11T18:39:48.127Z,57.60
2018-04-11T18:42:14.119Z,57.60
2018-04-11T18:44:40.844Z,58.00
2018-04-11T18:47:06.821Z,58.00
2018-04-11T18:49:32.799Z,58.20
2018-04-11T18:51:58.780Z,58.10
2018-04-11T18:54:25.512Z,58.30
2018-04-11T18:56:51.483Z,58.20
2018-04-11T18:59:17.497Z,58.30
2018-04-11T19:01:43.479Z,58.60
2018-04-11T19:04:09.608Z,58.30
2018-04-11T19:06:35.607Z,58.90
2018-04-11T19:09:01.573Z,59.10
2018-04-11T19:11:27.579Z,59.10
2018-04-11T19:13:53.523Z,59.30
2018-04-11T19:16:20.242Z,59.70
2018-04-11T19:18:46.356Z,59.50
2018-04-11T19:21:12.374Z,59.90
2018-04-11T19:23:38.361Z,59.70
2018-04-11T19:26:04.331Z,59.90
2018-04-11T19:28:31.068Z,60.20
2018-04-11T19:30:57.071Z,60.10
2018-04-11T19:33:23.055Z,60.10
2018-04-11T19:35:49.815Z,60.30
2018-04-11T19:38:16.535Z,60.60
2018-04-11T19:40:42.611Z,60.50
2018-04-11T19:43:09.402Z,60.80
2018-04-11T19:45:35.414Z,60.80
2018-04-11T19:48:01.389Z,60.70
2018-04-11T19:50:27.428Z,61.10
2018-04-11T19:52:53.405Z,61.30
2018-04-11T19:55:20.096Z,61.30
2018-04-11T19:57:46.137Z,61.30
2018-04-11T20:00:12.136Z,62.20
2018-04-11T20:02:38.898Z,62.00
2018-04-11T20:05:04.856Z,62.00
2018-04-11T20:07:30.882Z,62.00
2018-04-11T20:09:57.574Z,62.90
2018-04-11T20:12:23.507Z,62.90
2018-04-11T20:14:49.495Z,63.30
2018-04-11T20:17:16.186Z,63.10
2018-04-11T20:19:42.215Z,63.10
2018-04-11T20:22:08.328Z,63.30
2018-04-11T20:24:34.324Z,63.80
2018-04-11T20:27:00.309Z,63.80
2018-04-11T20:29:26.277Z,64.40
2018-04-11T20:31:52.284Z,64.00
2018-04-11T20:34:18.245Z,64.00
2018-04-11T20:36:44.224Z,64.60
2018-04-11T20:39:10.983Z,65.00
2018-04-11T20:41:37.717Z,66.30
2018-04-11T20:44:03.681Z,66.30
2018-04-11T20:46:29.640Z,66.10
2018-04-11T20:48:55.679Z,66.10
2018-04-11T20:51:21.632Z,66.40
2018-04-11T20:53:47.587Z,67.50
2018-04-11T20:56:13.607Z,68.60
2018-04-11T20:58:39.580Z,67.90
2018-04-11T21:01:06.306Z,68.40
2018-04-11T21:03:32.267Z,68.30
2018-04-11T21:05:58.334Z,67.60
2018-04-11T21:08:24.272Z,69.70
2018-04-11T21:10:50.253Z,69.80
2018-04-11T21:13:16.235Z,69.70
2018-04-11T21:15:42.297Z,70.30
2018-04-11T21:18:08.330Z,73.10
2018-04-11T21:20:34.307Z,71.30
2018-04-11T21:23:00.260Z,74.30
2018-04-11T21:25:26.971Z,73.40
2018-04-11T21:27:52.953Z,72.60
2018-04-11T21:30:19.631Z,74.60
2018-04-11T21:32:45.619Z,74.60
2018-04-11T21:35:11.615Z,75.90
2018-04-11T21:37:37.617Z,76.40
2018-04-11T21:40:04.307Z,77.00
2018-04-11T21:42:30.264Z,76.90
2018-04-11T21:44:56.257Z,77.00
2018-04-11T21:47:22.209Z,78.00
2018-04-11T21:49:48.187Z,79.30
2018-04-11T21:52:14.145Z,79.40
2018-04-11T21:54:40.898Z,81.90
2018-04-11T21:57:07.613Z,82.10
2018-04-11T21:59:33.580Z,82.00
2018-04-11T22:01:59.559Z,81.90
2018-04-11T22:04:25.535Z,83.50
2018-04-11T22:06:51.527Z,83.70
2018-04-11T22:09:17.511Z,85.60
2018-04-11T22:11:43.503Z,86.30
2018-04-11T22:14:09.589Z,86.70
2018-04-11T22:16:35.544Z,87.20
2018-04-11T22:19:02.265Z,90.30
2018-04-11T22:21:28.245Z,90.30
2018-04-11T22:23:54.214Z,90.80
2018-04-11T22:26:20.152Z,89.70
2018-04-11T22:28:46.146Z,91.20
2018-04-11T22:31:12.836Z,91.00
2018-04-11T22:33:38.860Z,90.90
2018-04-11T22:36:04.803Z,91.40
2018-04-11T22:38:30.796Z,92.90
2018-04-11T22:40:57.499Z,94.10
2018-04-11T22:43:23.480Z,94.10
2018-04-11T22:45:49.424Z,94.30
2018-04-11T22:48:16.167Z,96.30
2018-04-11T22:50:42.140Z,96.30
2018-04-11T22:53:08.141Z,96.10
2018-04-11T22:55:34.888Z,97.70
2018-04-11T22:58:00.839Z,97.70
2018-04-11T23:00:27.527Z,97.20
2018-04-11T23:02:53.495Z,97.20
2018-04-11T23:05:19.447Z,97.40
2018-04-11T23:07:45.440Z,98.20
2018-04-11T23:10:11.404Z,97.80
2018-04-11T23:12:37.448Z,98.40
2018-04-11T23:15:03.408Z,98.40
2018-04-11T23:17:30.112Z,99.90
2018-04-11T23:19:56.099Z,99.80
2018-04-11T23:22:22.812Z,99.90
2018-04-11T23:24:48.797Z,99.90
2018-04-11T23:27:15.532Z,99.90
2018-04-11T23:29:41.514Z,99.90
2018-04-11T23:32:07.501Z,99.90
2018-04-11T23:34:34.227Z,99.90
2018-04-11T23:37:00.171Z,99.90
2018-04-11T23:39:26.144Z,99.90
2018-04-11T23:41:52.866Z,99.90
2018-04-11T23:44:18.825Z,99.90
2018-04-11T23:46:45.548Z,99.90
2018-04-11T23:49:11.546Z,99.90
2018-04-11T23:51:37.499Z,99.90
2018-04-11T23:54:03.485Z,99.90
2018-04-11T23:56:30.181Z,99.90
2018-04-11T23:58:56.156Z,99.90
